createdAt,value
2023-06-04T00:01:25.494Z,13.49
2023-06-04T00:04:28.157Z,13.37
2023-06-04T00:07:30.903Z,13.12
2023-06-04T00:10:34.846Z,13.03
2023-06-04T00:13:37.330Z,12.93
2023-06-04T00:16:39.890Z,12.96
2023-06-04T00:19:42.545Z,13.05
2023-06-04T00:22:45.241Z,12.98
2023-06-04T00:25:47.871Z,12.92
2023-06-04T00:28:50.400Z,12.74
2023-06-04T00:31:52.977Z,13.00
2023-06-04T00:34:56.569Z,12.94
2023-06-04T00:37:59.018Z,12.88
2023-06-04T00:41:01.460Z,12.94
2023-06-04T00:44:07.806Z,12.94
2023-06-04T00:47:10.714Z,12.72
2023-06-04T00:50:14.543Z,12.84
2023-06-04T00:53:17.677Z,12.67
2023-06-04T00:56:20.443Z,12.98
2023-06-04T00:59:23.129Z,12.94
2023-06-04T01:02:28.802Z,12.95
2023-06-04T01:05:40.083Z,12.70
2023-06-04T01:08:44.615Z,12.74
2023-06-04T01:11:47.074Z,12.80
2023-06-04T01:14:49.687Z,12.76
2023-06-04T01:17:58.684Z,12.80
2023-06-04T01:21:08.465Z,12.81
2023-06-04T01:24:11.134Z,12.88
2023-06-04T01:27:13.747Z,12.82
2023-06-04T01:30:17.304Z,12.88
2023-06-04T01:33:21.299Z,12.80
2023-06-04T01:36:24.037Z,12.72
2023-06-04T01:39:26.755Z,12.68
2023-06-04T01:42:29.189Z,12.68
2023-06-04T01:45:32.256Z,12.60
2023-06-04T01:48:35.006Z,12.64
2023-06-04T01:51:38.202Z,12.70
2023-06-04T01:54:41.926Z,12.47
2023-06-04T01:57:45.991Z,12.47
2023-06-04T02:00:50.908Z,12.32
2023-06-04T02:03:53.862Z,12.33
2023-06-04T02:06:57.808Z,12.34
2023-06-04T02:10:00.316Z,12.39
2023-06-04T02:13:04.429Z,12.31
2023-06-04T02:16:07.297Z,12.34
2023-06-04T02:19:09.856Z,12.28
2023-06-04T02:22:13.324Z,12.20
2023-06-04T02:25:16.629Z,12.04
2023-06-04T02:28:19.269Z,12.21
2023-06-04T02:31:22.401Z,12.18
2023-06-04T02:34:26.000Z,12.26
2023-06-04T02:37:28.460Z,12.10
2023-06-04T02:40:30.903Z,11.96
2023-06-04T02:43:33.740Z,11.99
2023-06-04T02:46:36.229Z,11.94
2023-06-04T02:49:39.117Z,11.84
2023-06-04T02:52:43.992Z,11.70
2023-06-04T02:55:47.127Z,11.91
2023-06-04T02:58:54.643Z,11.84
2023-06-04T03:01:57.382Z,11.99
2023-06-04T03:04:59.922Z,11.87
2023-06-04T03:08:03.758Z,11.93
2023-06-04T03:11:06.850Z,11.91
2023-06-04T03:14:09.466Z,12.03
2023-06-04T03:17:12.460Z,12.08
2023-06-04T03:20:14.951Z,12.03
2023-06-04T03:23:17.697Z,12.02
2023-06-04T03:26:20.181Z,12.14
2023-06-04T03:29:22.672Z,12.30
2023-06-04T03:32:27.053Z,12.54
2023-06-04T03:35:30.134Z,12.62
2023-06-04T03:38:32.647Z,12.80
2023-06-04T03:41:35.659Z,13.03
2023-06-04T03:44:38.200Z,13.19
2023-06-04T03:47:41.764Z,13.28
2023-06-04T03:50:47.203Z,13.47
2023-06-04T03:53:50.849Z,13.52
2023-06-04T03:56:53.473Z,13.71
2023-06-04T03:59:56.554Z,13.86
2023-06-04T04:02:59.663Z,13.82
2023-06-04T04:06:04.892Z,13.77
2023-06-04T04:09:08.034Z,13.85
2023-06-04T04:12:12.054Z,13.93
2023-06-04T04:15:14.657Z,14.13
2023-06-04T04:18:20.983Z,14.27
2023-06-04T04:21:24.406Z,14.31
2023-06-04T04:24:28.279Z,14.15
2023-06-04T04:27:39.761Z,14.42
2023-06-04T04:30:45.565Z,14.47
2023-06-04T04:33:48.968Z,14.42
2023-06-04T04:36:53.884Z,14.31
2023-06-04T04:39:58.406Z,14.33
2023-06-04T04:43:03.683Z,14.28
2023-06-04T04:46:07.326Z,14.36
2023-06-04T04:49:10.327Z,14.32
2023-06-04T04:52:12.743Z,14.37
2023-06-04T04:55:17.440Z,14.44
2023-06-04T04:58:22.850Z,14.87
2023-06-04T05:01:26.842Z,15.33
2023-06-04T05:04:30.182Z,15.45
2023-06-04T05:07:33.082Z,15.61
2023-06-04T05:10:37.147Z,15.78
2023-06-04T05:13:42.624Z,15.88
2023-06-04T05:16:47.013Z,15.74
2023-06-04T05:19:49.682Z,16.08
2023-06-04T05:22:52.872Z,15.84
2023-06-04T05:25:57.090Z,16.09
2023-06-04T05:28:59.798Z,16.31
2023-06-04T05:32:05.875Z,16.69
2023-06-04T05:35:09.376Z,16.59
2023-06-04T05:38:18.460Z,16.66
2023-06-04T05:41:24.893Z,16.87
2023-06-04T05:44:27.894Z,16.85
2023-06-04T05:47:31.152Z,16.98
2023-06-04T05:50:34.423Z,17.06
2023-06-04T05:53:37.819Z,17.12
2023-06-04T05:56:40.454Z,17.14
2023-06-04T05:59:43.226Z,17.42
2023-06-04T06:02:53.834Z,17.78
2023-06-04T06:06:14.068Z,17.86
2023-06-04T06:09:19.865Z,17.88
2023-06-04T06:12:22.519Z,18.47
2023-06-04T06:15:24.994Z,18.99
2023-06-04T06:18:28.853Z,19.34
2023-06-04T06:21:31.733Z,19.24
2023-06-04T06:24:34.516Z,19.49
2023-06-04T06:27:37.387Z,19.47
2023-06-04T06:30:40.864Z,19.27
2023-06-04T06:33:43.490Z,19.05
2023-06-04T06:36:45.943Z,19.00
2023-06-04T06:39:48.689Z,18.78
2023-06-04T06:42:54.383Z,18.38
2023-06-04T06:45:56.916Z,18.21
2023-06-04T06:48:59.595Z,17.86
2023-06-04T06:52:02.096Z,17.92
2023-06-04T06:55:05.839Z,18.79
2023-06-04T06:58:08.521Z,19.11
2023-06-04T07:01:11.439Z,19.31
2023-06-04T07:04:14.113Z,19.63
2023-06-04T07:07:18.773Z,19.54
2023-06-04T07:10:22.051Z,19.53
2023-06-04T07:13:24.728Z,19.36
2023-06-04T07:16:27.272Z,19.24
2023-06-04T07:19:29.786Z,19.05
2023-06-04T07:22:33.842Z,19.21
2023-06-04T07:25:36.406Z,19.56
2023-06-04T07:28:38.888Z,19.16
2023-06-04T07:31:42.744Z,19.48
2023-06-04T07:34:45.967Z,19.68
2023-06-04T07:37:50.156Z,19.57
2023-06-04T07:40:52.783Z,19.84
2023-06-04T07:43:55.455Z,19.95
2023-06-04T07:46:59.030Z,20.21
2023-06-04T07:50:03.494Z,20.46
2023-06-04T07:53:07.562Z,20.67
2023-06-04T07:56:10.108Z,21.11
2023-06-04T07:59:12.674Z,20.92
2023-06-04T08:02:16.176Z,20.84
2023-06-04T08:05:18.926Z,20.87
2023-06-04T08:08:21.452Z,21.20
2023-06-04T08:11:23.998Z,22.04
2023-06-04T08:14:28.293Z,22.24
2023-06-04T08:17:30.791Z,22.10
2023-06-04T08:20:33.337Z,23.01
2023-06-04T08:23:35.782Z,23.43
2023-06-04T08:26:38.450Z,23.69
2023-06-04T08:29:41.581Z,23.63
2023-06-04T08:32:44.217Z,23.29
2023-06-04T08:35:46.862Z,22.91
2023-06-04T08:38:52.917Z,23.59
2023-06-04T08:42:03.190Z,23.53
2023-06-04T08:45:07.117Z,23.71
2023-06-04T08:48:14.362Z,22.18
2023-06-04T08:51:17.744Z,22.12
2023-06-04T08:54:20.189Z,21.71
2023-06-04T08:57:22.877Z,22.06
2023-06-04T09:00:25.486Z,22.21
2023-06-04T09:03:29.283Z,22.27
2023-06-04T09:06:34.144Z,22.36
2023-06-04T09:09:40.024Z,22.35
2023-06-04T09:12:48.793Z,22.39
2023-06-04T09:16:04.720Z,22.52
2023-06-04T09:19:07.711Z,22.72
2023-06-04T09:22:10.203Z,22.89
2023-06-04T09:25:24.526Z,22.73
2023-06-04T09:28:31.694Z,22.88
2023-06-04T09:31:38.301Z,22.98
2023-06-04T09:34:46.260Z,22.92
2023-06-04T09:37:57.167Z,22.87
2023-06-04T09:41:01.873Z,22.91
2023-06-04T09:44:05.070Z,22.71
2023-06-04T09:47:07.644Z,22.84
2023-06-04T09:50:12.397Z,23.24
2023-06-04T09:53:19.521Z,23.40
2023-06-04T09:56:22.318Z,22.91
2023-06-04T09:59:26.916Z,23.18
2023-06-04T10:02:31.386Z,23.99
2023-06-04T10:05:35.562Z,24.41
2023-06-04T10:08:42.885Z,24.32
2023-06-04T10:11:52.153Z,24.47
2023-06-04T10:15:03.054Z,25.56
2023-06-04T10:18:07.271Z,25.95
2023-06-04T10:21:10.621Z,25.61
2023-06-04T10:24:15.570Z,25.76
2023-06-04T10:27:19.142Z,25.42
2023-06-04T10:30:21.830Z,25.08
2023-06-04T10:33:27.391Z,25.31
2023-06-04T10:36:30.074Z,25.69
2023-06-04T10:39:33.586Z,26.37
2023-06-04T10:42:43.953Z,26.96
2023-06-04T10:45:47.003Z,28.26
2023-06-04T10:48:54.205Z,29.04
2023-06-04T10:51:57.338Z,31.09
2023-06-04T10:55:07.949Z,27.80
2023-06-04T10:58:10.466Z,27.21
2023-06-04T11:01:14.783Z,29.15
2023-06-04T11:04:25.985Z,32.25
2023-06-04T11:07:28.596Z,33.20
2023-06-04T11:10:35.242Z,33.91
2023-06-04T11:13:37.656Z,34.11
2023-06-04T11:16:40.654Z,34.66
2023-06-04T11:19:43.449Z,34.10
2023-06-04T11:23:13.622Z,34.96
2023-06-04T11:26:16.242Z,35.30
2023-06-04T11:29:19.068Z,34.60
2023-06-04T11:32:26.024Z,32.70
2023-06-04T11:35:28.705Z,31.92
2023-06-04T11:38:31.199Z,30.06
2023-06-04T11:41:36.470Z,27.96
2023-06-04T11:44:39.722Z,27.05
2023-06-04T11:47:54.403Z,27.29
2023-06-04T11:50:57.606Z,27.12
2023-06-04T11:54:00.688Z,26.40
2023-06-04T11:57:05.702Z,27.30
2023-06-04T12:00:11.851Z,28.16
2023-06-04T12:03:14.752Z,27.55
2023-06-04T12:06:20.475Z,26.93
2023-06-04T12:09:30.503Z,26.60
2023-06-04T12:12:33.008Z,26.05
2023-06-04T12:15:35.621Z,25.79
2023-06-04T12:18:38.150Z,26.11
2023-06-04T12:21:40.936Z,26.04
2023-06-04T12:24:54.559Z,25.18
2023-06-04T12:27:57.572Z,25.14
2023-06-04T12:31:00.134Z,25.38
2023-06-04T12:34:02.747Z,24.73
2023-06-04T12:37:07.118Z,24.83
2023-06-04T12:40:10.230Z,24.21
2023-06-04T12:43:12.716Z,24.30
2023-06-04T12:46:15.348Z,24.34
2023-06-04T12:49:17.899Z,24.23
2023-06-04T12:52:20.479Z,24.30
2023-06-04T12:55:22.966Z,23.92
2023-06-04T12:58:25.424Z,24.13
2023-06-04T13:01:28.661Z,24.58
2023-06-04T13:04:31.376Z,24.71
2023-06-04T13:07:34.026Z,24.68
2023-06-04T13:10:36.815Z,24.42
2023-06-04T13:13:39.354Z,24.59
2023-06-04T13:16:42.326Z,24.49
2023-06-04T13:19:44.912Z,24.85
2023-06-04T13:22:48.270Z,25.27
2023-06-04T13:25:50.790Z,25.18
2023-06-04T13:28:53.590Z,25.28
2023-06-04T13:31:56.083Z,25.14
2023-06-04T13:34:58.743Z,25.28
2023-06-04T13:38:01.359Z,24.86
2023-06-04T13:41:04.008Z,24.98
2023-06-04T13:44:07.742Z,25.14
2023-06-04T13:47:10.278Z,25.17
2023-06-04T13:50:12.778Z,25.28
2023-06-04T13:53:15.381Z,25.16
2023-06-04T13:56:17.853Z,25.30
2023-06-04T13:59:20.459Z,24.62
2023-06-04T14:02:23.148Z,25.19
2023-06-04T14:05:28.549Z,25.35
2023-06-04T14:08:31.421Z,25.48
2023-06-04T14:11:34.452Z,25.14
2023-06-04T14:14:40.340Z,25.11
2023-06-04T14:17:43.200Z,25.12
2023-06-04T14:20:45.920Z,25.03
2023-06-04T14:23:48.437Z,25.09
2023-06-04T14:26:51.690Z,24.78
2023-06-04T14:29:54.129Z,24.60
2023-06-04T14:32:56.786Z,24.45
2023-06-04T14:35:59.337Z,23.78
2023-06-04T14:39:01.955Z,23.72
2023-06-04T14:42:04.708Z,23.46
2023-06-04T14:45:07.938Z,23.14
2023-06-04T14:48:14.725Z,22.88
2023-06-04T14:51:17.790Z,23.00
2023-06-04T14:54:20.302Z,23.23
2023-06-04T14:57:22.876Z,23.21
2023-06-04T15:00:25.673Z,23.00
2023-06-04T15:03:28.336Z,22.87
2023-06-04T15:06:31.152Z,22.96
2023-06-04T15:09:33.650Z,22.56
2023-06-04T15:12:39.190Z,22.58
2023-06-04T15:15:41.995Z,22.70
2023-06-04T15:18:44.949Z,22.54
2023-06-04T15:21:47.562Z,22.81
2023-06-04T15:24:50.341Z,22.64
2023-06-04T15:27:53.011Z,22.51
2023-06-04T15:30:55.831Z,22.57
2023-06-04T15:33:58.402Z,22.49
2023-06-04T15:37:00.866Z,22.49
2023-06-04T15:40:04.546Z,22.14
2023-06-04T15:43:07.319Z,22.35
2023-06-04T15:46:09.832Z,22.29
2023-06-04T15:49:12.413Z,22.32
2023-06-04T15:52:14.931Z,22.37
2023-06-04T15:55:17.522Z,22.42
2023-06-04T15:58:20.120Z,22.43
2023-06-04T16:01:22.903Z,22.34
2023-06-04T16:04:25.429Z,22.35
2023-06-04T16:07:27.904Z,22.35
2023-06-04T16:10:30.539Z,22.40
2023-06-04T16:13:33.042Z,22.50
2023-06-04T16:16:36.417Z,22.69
2023-06-04T16:19:39.015Z,22.57
2023-06-04T16:22:41.936Z,22.59
2023-06-04T16:25:44.455Z,22.24
2023-06-04T16:28:46.972Z,22.25
2023-06-04T16:31:49.781Z,22.18
2023-06-04T16:34:52.377Z,21.83
2023-06-04T16:37:55.142Z,21.77
2023-06-04T16:40:57.725Z,21.61
2023-06-04T16:44:00.247Z,21.87
2023-06-04T16:47:02.841Z,21.81
2023-06-04T16:50:07.164Z,21.82
2023-06-04T16:53:10.359Z,21.72
2023-06-04T16:56:12.941Z,21.52
2023-06-04T16:59:15.551Z,21.65
2023-06-04T17:02:18.481Z,21.79
2023-06-04T17:05:25.403Z,21.57
2023-06-04T17:08:28.444Z,21.50
2023-06-04T17:11:33.831Z,21.40
2023-06-04T17:14:36.637Z,21.37
2023-06-04T17:17:39.165Z,21.19
2023-06-04T17:20:41.749Z,21.21
2023-06-04T17:23:48.891Z,21.25
2023-06-04T17:26:52.079Z,21.20
2023-06-04T17:29:54.585Z,21.16
2023-06-04T17:32:57.267Z,21.15
2023-06-04T17:35:59.887Z,20.98
2023-06-04T17:39:02.618Z,21.12
2023-06-04T17:42:05.792Z,21.06
2023-06-04T17:45:11.334Z,21.13
2023-06-04T17:48:13.910Z,20.94
2023-06-04T17:51:16.631Z,20.94
2023-06-04T17:54:19.459Z,20.95
2023-06-04T17:57:22.049Z,20.79
2023-06-04T18:00:24.572Z,20.97
2023-06-04T18:03:27.192Z,20.84
2023-06-04T18:06:29.766Z,20.83
2023-06-04T18:09:32.262Z,20.69
2023-06-04T18:12:38.417Z,20.81
2023-06-04T18:15:40.897Z,20.75
2023-06-04T18:18:43.947Z,20.82
2023-06-04T18:21:46.463Z,20.76
2023-06-04T18:24:49.174Z,20.72
2023-06-04T18:27:51.854Z,20.63
2023-06-04T18:30:54.541Z,20.53
2023-06-04T18:34:02.839Z,20.52
2023-06-04T18:37:06.096Z,20.47
2023-06-04T18:40:11.658Z,20.44
2023-06-04T18:43:15.538Z,20.37
2023-06-04T18:46:19.309Z,20.34
2023-06-04T18:49:23.052Z,20.26
2023-06-04T18:52:25.858Z,20.25
2023-06-04T18:55:28.431Z,20.25
2023-06-04T18:58:30.910Z,20.08
2023-06-04T19:01:33.479Z,20.14
2023-06-04T19:04:36.194Z,20.05
2023-06-04T19:07:40.979Z,19.97
2023-06-04T19:10:46.614Z,19.94
2023-06-04T19:13:49.657Z,19.86
2023-06-04T19:16:52.559Z,19.90
2023-06-04T19:19:56.002Z,19.94
2023-06-04T19:22:58.731Z,19.96
2023-06-04T19:26:01.890Z,19.80
2023-06-04T19:29:04.557Z,19.83
2023-06-04T19:32:07.479Z,19.87
2023-06-04T19:35:10.268Z,19.87
2023-06-04T19:38:13.022Z,19.90
2023-06-04T19:41:15.603Z,19.82
2023-06-04T19:44:18.553Z,19.65
2023-06-04T19:47:21.246Z,19.71
2023-06-04T19:50:23.923Z,19.74
2023-06-04T19:53:26.526Z,19.66
2023-06-04T19:56:29.271Z,19.67
2023-06-04T19:59:32.215Z,19.70
2023-06-04T20:02:36.060Z,19.63
2023-06-04T20:05:38.796Z,19.62
2023-06-04T20:08:41.337Z,19.52
2023-06-04T20:11:43.904Z,19.54
2023-06-04T20:14:47.285Z,19.53
2023-06-04T20:17:49.836Z,19.41
2023-06-04T20:20:53.375Z,19.43
2023-06-04T20:23:56.326Z,19.28
2023-06-04T20:26:58.829Z,19.30
2023-06-04T20:30:01.432Z,19.25
2023-06-04T20:33:04.201Z,19.16
2023-06-04T20:36:09.540Z,19.11
2023-06-04T20:39:12.385Z,19.05
2023-06-04T20:42:14.842Z,18.95
2023-06-04T20:45:17.748Z,18.98
2023-06-04T20:48:20.192Z,18.87
2023-06-04T20:51:22.712Z,18.83
2023-06-04T20:54:25.255Z,18.82
2023-06-04T20:57:27.837Z,18.71
2023-06-04T21:00:32.649Z,18.66
2023-06-04T21:03:35.292Z,18.72
2023-06-04T21:06:38.519Z,18.71
2023-06-04T21:09:41.401Z,18.66
2023-06-04T21:12:43.874Z,18.50
2023-06-04T21:15:46.588Z,18.43
2023-06-04T21:18:52.420Z,18.46
2023-06-04T21:21:54.902Z,18.44
2023-06-04T21:24:57.447Z,18.57
2023-06-04T21:28:00.038Z,18.55
2023-06-04T21:31:02.595Z,18.46
2023-06-04T21:34:05.102Z,18.38
2023-06-04T21:37:07.690Z,18.51
2023-06-04T21:40:10.561Z,18.42
2023-06-04T21:43:13.178Z,18.27
2023-06-04T21:46:16.232Z,18.23
2023-06-04T21:49:18.807Z,18.22
2023-06-04T21:52:25.580Z,18.23
2023-06-04T21:55:28.865Z,18.24
2023-06-04T21:58:31.447Z,18.26
2023-06-04T22:01:34.036Z,18.26
2023-06-04T22:04:36.598Z,18.23
2023-06-04T22:07:39.120Z,18.24
2023-06-04T22:10:41.615Z,18.31
2023-06-04T22:13:44.432Z,18.28
2023-06-04T22:16:46.872Z,18.21
2023-06-04T22:19:49.532Z,18.32
2023-06-04T22:22:52.075Z,18.32
2023-06-04T22:25:54.689Z,18.30
2023-06-04T22:28:57.194Z,18.37
2023-06-04T22:31:59.746Z,18.29
2023-06-04T22:35:02.244Z,18.36
2023-06-04T22:38:04.807Z,18.36
2023-06-04T22:41:07.520Z,18.39
2023-06-04T22:44:10.221Z,18.36
2023-06-04T22:47:13.094Z,18.47
2023-06-04T22:50:16.001Z,18.35
2023-06-04T22:53:20.030Z,18.37
2023-06-04T22:56:23.086Z,18.45
2023-06-04T22:59:27.526Z,18.45
2023-06-04T23:02:30.157Z,18.41
2023-06-04T23:05:33.352Z,18.41
2023-06-04T23:08:35.883Z,18.40
2023-06-04T23:11:38.306Z,18.44
2023-06-04T23:14:41.041Z,18.33
2023-06-04T23:17:43.503Z,18.30
2023-06-04T23:20:46.138Z,18.29
2023-06-04T23:23:48.705Z,18.23
2023-06-04T23:26:52.110Z,18.16
2023-06-04T23:29:54.621Z,18.03
2023-06-04T23:32:59.177Z,18.00
2023-06-04T23:36:01.793Z,17.91
2023-06-04T23:39:04.989Z,17.87
2023-06-04T23:42:07.573Z,17.80
2023-06-04T23:45:10.714Z,17.74
2023-06-04T23:48:13.194Z,17.81
2023-06-04T23:51:15.639Z,17.77
2023-06-04T23:54:21.288Z,17.76
2023-06-04T23:57:23.797Z,17.78
